Terminal Aerodrome Forecast
Issued by NWS

Home | Current Version | Previous Version | Graphics & Text | Print | Product List | Glossary On
Versions: 1 2 3 4 5 6 7 8 9 10 11 12 13 14 15 16 17
411
FTUS43 KMPX 201120
TAFRWF
TAF
KRWF 201120Z 2012/2112 34004KT 1SM BR SCT002 BKN250
     FM201300 36005KT P6SM SCT070 SCT250
     FM210200 12005KT P6SM SCT100 BKN250
     FM210900 13007KT P6SM VCSH BKN080=

USA.gov is the U.S. government's official web portal to all federal, state and local government web resources and services.